KCTZ/CTZ METAR and TAF weather

Enter ICAO airport designator
Station Type Date Time Source
KCTZ METAR 2020/02/21 02:55 UTC NOAA

KCTZ 210255Z AUTO 02008KT 2 1/2SM BKN006 OVC010 01/01 A3030 RMK AO2 60006 T00050005


Station Type Date Time Source
KCTZ Decoded METAR 2020/02/21 02:55 UTC NOAA

Clinton, Sampson County Airport, NC, United States (KCTZ) 34-58-32N 078-21-53W
Feb 20, 2020 - 09:55 PM EST / 2020.02.21 0255 UTC
Wind: from the NNE (020 degrees) at 9 MPH (8 KT):0
Visibility: 2 1/2 mile(s):0
Sky conditions: overcast
Temperature: 32.9 F (0.5 C)
Windchill: 24 F (-4 C):1
Dew Point: 32.9 F (0.5 C)
Relative Humidity: 100%
Pressure (altimeter): 30.3 in. Hg (1026 hPa)
ob: KCTZ 210255Z AUTO 02008KT 2 1/2SM BKN006 OVC010 01/01 A3030 RMK AO2 60006 T00050005
cycle: 3

Station Type Date Time Source
KCTZ TAF UTC NOAA

Error!

Example: see airport list